sensor_id;sensor_type;location;lat;lon;timestamp;temperature;humidity
20459;DHT22;10388;52.314;7.938;2022-09-09T01:21:13;14.10;99.90
20459;DHT22;10388;52.314;7.938;2022-09-09T01:24:26;14.10;99.90
20459;DHT22;10388;52.314;7.938;2022-09-09T01:27:35;14.20;99.90
20459;DHT22;10388;52.314;7.938;2022-09-09T01:30:15;14.20;99.90
20459;DHT22;10388;52.314;7.938;2022-09-09T01:39:28;14.20;99.90
20459;DHT22;10388;52.314;7.938;2022-09-09T01:42:16;14.10;99.90
20459;DHT22;10388;52.314;7.938;2022-09-09T01:48:44;14.20;99.90
20459;DHT22;10388;52.314;7.938;2022-09-09T01:55:03;14.20;99.90
20459;DHT22;10388;52.314;7.938;2022-09-09T02:03:55;14.20;99.90
20459;DHT22;10388;52.314;7.938;2022-09-09T02:06:44;14.20;99.90
20459;DHT22;10388;52.314;7.938;2022-09-09T02:09:34;14.20;99.90
20459;DHT22;10388;52.314;7.938;2022-09-09T02:15:42;14.20;99.90
20459;DHT22;10388;52.314;7.938;2022-09-09T02:21:32;14.30;99.90
20459;DHT22;10388;52.314;7.938;2022-09-09T02:31:01;14.30;99.90
20459;DHT22;10388;52.314;7.938;2022-09-09T02:34:17;14.30;99.90
20459;DHT22;10388;52.314;7.938;2022-09-09T02:37:12;14.30;99.90
20459;DHT22;10388;52.314;7.938;2022-09-09T02:44:04;14.30;99.90
20459;DHT22;10388;52.314;7.938;2022-09-09T02:50:33;14.20;99.90
20459;DHT22;10388;52.314;7.938;2022-09-09T02:56:37;14.30;99.90
20459;DHT22;10388;52.314;7.938;2022-09-09T02:59:51;14.20;99.90
20459;DHT22;10388;52.314;7.938;2022-09-09T03:02:32;14.20;99.90
20459;DHT22;10388;52.314;7.938;2022-09-09T03:05:33;14.10;99.90
20459;DHT22;10388;52.314;7.938;2022-09-09T03:09:07;14.10;99.90
20459;DHT22;10388;52.314;7.938;2022-09-09T03:12:16;14.10;99.90
20459;DHT22;10388;52.314;7.938;2022-09-09T03:28:04;13.90;99.90
20459;DHT22;10388;52.314;7.938;2022-09-09T03:31:05;13.90;99.90
20459;DHT22;10388;52.314;7.938;2022-09-09T03:43:36;13.90;99.90
20459;DHT22;10388;52.314;7.938;2022-09-09T03:46:43;13.90;99.90
20459;DHT22;10388;52.314;7.938;2022-09-09T03:49:50;13.80;99.90
20459;DHT22;10388;52.314;7.938;2022-09-09T04:02:34;13.90;99.90
20459;DHT22;10388;52.314;7.938;2022-09-09T04:05:05;14.00;99.90
20459;DHT22;10388;52.314;7.938;2022-09-09T04:07:36;14.00;99.90
20459;DHT22;10388;52.314;7.938;2022-09-09T04:10:07;14.00;99.90
20459;DHT22;10388;52.314;7.938;2022-09-09T04:12:38;14.00;99.90
20459;DHT22;10388;52.314;7.938;2022-09-09T04:15:09;14.00;99.90
20459;DHT22;10388;52.314;7.938;2022-09-09T04:17:40;14.00;99.90
20459;DHT22;10388;52.314;7.938;2022-09-09T04:20:11;14.00;99.90
20459;DHT22;10388;52.314;7.938;2022-09-09T04:22:42;14.00;99.90
20459;DHT22;10388;52.314;7.938;2022-09-09T04:25:13;14.00;99.90
20459;DHT22;10388;52.314;7.938;2022-09-09T04:27:43;13.90;99.90
20459;DHT22;10388;52.314;7.938;2022-09-09T04:30:14;13.90;99.90
20459;DHT22;10388;52.314;7.938;2022-09-09T04:32:45;13.90;99.90
20459;DHT22;10388;52.314;7.938;2022-09-09T04:35:15;13.90;99.90
20459;DHT22;10388;52.314;7.938;2022-09-09T04:37:46;13.90;99.90
20459;DHT22;10388;52.314;7.938;2022-09-09T04:40:18;13.90;99.90
20459;DHT22;10388;52.314;7.938;2022-09-09T04:42:48;13.80;99.90
20459;DHT22;10388;52.314;7.938;2022-09-09T04:45:19;13.80;99.90
20459;DHT22;10388;52.314;7.938;2022-09-09T04:47:50;13.80;99.90
20459;DHT22;10388;52.314;7.938;2022-09-09T04:50:20;13.90;99.90
20459;DHT22;10388;52.314;7.938;2022-09-09T04:52:51;13.90;99.90
20459;DHT22;10388;52.314;7.938;2022-09-09T04:55:22;13.90;99.90
20459;DHT22;10388;52.314;7.938;2022-09-09T04:57:52;13.90;99.90
20459;DHT22;10388;52.314;7.938;2022-09-09T05:00:24;13.90;99.90
20459;DHT22;10388;52.314;7.938;2022-09-09T05:02:55;13.90;99.90
20459;DHT22;10388;52.314;7.938;2022-09-09T05:05:25;13.90;99.90
20459;DHT22;10388;52.314;7.938;2022-09-09T05:08:03;14.00;99.90
20459;DHT22;10388;52.314;7.938;2022-09-09T05:10:37;14.00;99.90
20459;DHT22;10388;52.314;7.938;2022-09-09T05:13:08;14.00;99.90
20459;DHT22;10388;52.314;7.938;2022-09-09T05:15:38;14.00;99.90
20459;DHT22;10388;52.314;7.938;2022-09-09T05:18:09;14.10;99.90
20459;DHT22;10388;52.314;7.938;2022-09-09T05:20:39;14.10;99.90
20459;DHT22;10388;52.314;7.938;2022-09-09T05:23:10;14.10;99.90
20459;DHT22;10388;52.314;7.938;2022-09-09T05:25:43;14.20;99.90
20459;DHT22;10388;52.314;7.938;2022-09-09T05:28:14;14.20;99.90
20459;DHT22;10388;52.314;7.938;2022-09-09T05:30:44;14.20;99.90
20459;DHT22;10388;52.314;7.938;2022-09-09T05:33:15;14.20;99.90
20459;DHT22;10388;52.314;7.938;2022-09-09T05:35:46;14.30;99.90
20459;DHT22;10388;52.314;7.938;2022-09-09T05:38:16;14.30;99.90
20459;DHT22;10388;52.314;7.938;2022-09-09T05:40:48;14.30;99.90
20459;DHT22;10388;52.314;7.938;2022-09-09T05:43:20;14.30;99.90
20459;DHT22;10388;52.314;7.938;2022-09-09T05:46:11;14.30;99.90
20459;DHT22;10388;52.314;7.938;2022-09-09T05:48:44;14.30;99.90
20459;DHT22;10388;52.314;7.938;2022-09-09T05:51:21;14.30;99.90
20459;DHT22;10388;52.314;7.938;2022-09-09T05:53:52;14.40;99.90
20459;DHT22;10388;52.314;7.938;2022-09-09T05:56:25;14.40;99.90
20459;DHT22;10388;52.314;7.938;2022-09-09T05:58:56;14.40;99.90
20459;DHT22;10388;52.314;7.938;2022-09-09T06:01:31;14.50;99.90
20459;DHT22;10388;52.314;7.938;2022-09-09T06:04:03;14.60;99.90
20459;DHT22;10388;52.314;7.938;2022-09-09T06:06:35;14.60;99.90
20459;DHT22;10388;52.314;7.938;2022-09-09T06:09:08;14.70;99.90
20459;DHT22;10388;52.314;7.938;2022-09-09T06:11:40;14.70;99.90
20459;DHT22;10388;52.314;7.938;2022-09-09T06:14:11;14.80;99.90
20459;DHT22;10388;52.314;7.938;2022-09-09T06:16:42;14.80;99.90
20459;DHT22;10388;52.314;7.938;2022-09-09T06:19:14;14.90;99.90
20459;DHT22;10388;52.314;7.938;2022-09-09T06:21:44;14.90;99.90
20459;DHT22;10388;52.314;7.938;2022-09-09T06:24:15;15.00;99.90
20459;DHT22;10388;52.314;7.938;2022-09-09T06:26:47;15.00;99.90
20459;DHT22;10388;52.314;7.938;2022-09-09T06:29:18;15.00;99.90
20459;DHT22;10388;52.314;7.938;2022-09-09T06:31:48;15.10;99.90
20459;DHT22;10388;52.314;7.938;2022-09-09T06:34:19;15.10;99.90
20459;DHT22;10388;52.314;7.938;2022-09-09T06:36:50;15.20;99.90
20459;DHT22;10388;52.314;7.938;2022-09-09T06:39:21;15.30;99.90
20459;DHT22;10388;52.314;7.938;2022-09-09T06:41:52;15.30;99.90
20459;DHT22;10388;52.314;7.938;2022-09-09T06:44:23;15.30;99.90
20459;DHT22;10388;52.314;7.938;2022-09-09T06:46:54;15.30;99.90
20459;DHT22;10388;52.314;7.938;2022-09-09T06:49:25;15.30;99.90
20459;DHT22;10388;52.314;7.938;2022-09-09T06:51:55;15.30;99.90
20459;DHT22;10388;52.314;7.938;2022-09-09T06:54:26;15.30;99.90
20459;DHT22;10388;52.314;7.938;2022-09-09T06:56:57;15.30;99.90
20459;DHT22;10388;52.314;7.938;2022-09-09T06:59:27;15.30;99.90
20459;DHT22;10388;52.314;7.938;2022-09-09T07:01:58;15.30;99.90
20459;DHT22;10388;52.314;7.938;2022-09-09T07:04:29;15.40;99.90
20459;DHT22;10388;52.314;7.938;2022-09-09T07:06:59;15.40;99.90
20459;DHT22;10388;52.314;7.938;2022-09-09T07:09:31;15.40;99.90
20459;DHT22;10388;52.314;7.938;2022-09-09T07:12:05;15.40;99.90
20459;DHT22;10388;52.314;7.938;2022-09-09T07:14:36;15.40;99.90
20459;DHT22;10388;52.314;7.938;2022-09-09T07:17:07;15.40;99.90
20459;DHT22;10388;52.314;7.938;2022-09-09T07:19:38;15.40;99.90
20459;DHT22;10388;52.314;7.938;2022-09-09T07:22:09;15.50;99.90
20459;DHT22;10388;52.314;7.938;2022-09-09T07:24:40;15.50;99.90
20459;DHT22;10388;52.314;7.938;2022-09-09T07:27:11;15.50;99.90
20459;DHT22;10388;52.314;7.938;2022-09-09T07:29:44;15.50;99.90
20459;DHT22;10388;52.314;7.938;2022-09-09T07:32:15;15.60;99.90
20459;DHT22;10388;52.314;7.938;2022-09-09T07:34:46;15.70;99.90
20459;DHT22;10388;52.314;7.938;2022-09-09T07:37:17;15.80;99.90
20459;DHT22;10388;52.314;7.938;2022-09-09T07:39:48;15.80;99.90
20459;DHT22;10388;52.314;7.938;2022-09-09T07:42:18;15.90;99.90
20459;DHT22;10388;52.314;7.938;2022-09-09T07:44:49;16.00;99.90
20459;DHT22;10388;52.314;7.938;2022-09-09T07:47:20;16.10;99.90
20459;DHT22;10388;52.314;7.938;2022-09-09T07:49:50;16.10;99.90
20459;DHT22;10388;52.314;7.938;2022-09-09T07:52:21;16.20;99.90
20459;DHT22;10388;52.314;7.938;2022-09-09T07:54:52;16.30;99.90
20459;DHT22;10388;52.314;7.938;2022-09-09T07:57:22;16.30;99.90
20459;DHT22;10388;52.314;7.938;2022-09-09T07:59:53;16.40;99.90
20459;DHT22;10388;52.314;7.938;2022-09-09T08:02:24;16.40;99.90
20459;DHT22;10388;52.314;7.938;2022-09-09T08:04:55;16.40;99.90
20459;DHT22;10388;52.314;7.938;2022-09-09T08:07:27;16.50;99.90
20459;DHT22;10388;52.314;7.938;2022-09-09T08:09:57;16.60;99.90
20459;DHT22;10388;52.314;7.938;2022-09-09T08:12:28;16.60;99.90
20459;DHT22;10388;52.314;7.938;2022-09-09T08:14:59;16.70;99.90
20459;DHT22;10388;52.314;7.938;2022-09-09T08:17:29;16.80;99.90
20459;DHT22;10388;52.314;7.938;2022-09-09T08:20:00;16.80;99.90
20459;DHT22;10388;52.314;7.938;2022-09-09T08:22:35;16.90;99.90
20459;DHT22;10388;52.314;7.938;2022-09-09T08:25:08;17.00;99.90
20459;DHT22;10388;52.314;7.938;2022-09-09T08:27:40;17.00;99.90
20459;DHT22;10388;52.314;7.938;2022-09-09T08:30:11;17.00;99.90
20459;DHT22;10388;52.314;7.938;2022-09-09T08:32:42;17.00;99.90
20459;DHT22;10388;52.314;7.938;2022-09-09T08:35:13;17.20;99.90
20459;DHT22;10388;52.314;7.938;2022-09-09T08:37:44;17.40;99.90
20459;DHT22;10388;52.314;7.938;2022-09-09T08:40:22;17.50;99.90
20459;DHT22;10388;52.314;7.938;2022-09-09T08:42:58;17.50;99.90
20459;DHT22;10388;52.314;7.938;2022-09-09T08:45:34;17.50;99.90
20459;DHT22;10388;52.314;7.938;2022-09-09T08:48:42;17.50;99.90
20459;DHT22;10388;52.314;7.938;2022-09-09T08:51:14;17.50;99.90
20459;DHT22;10388;52.314;7.938;2022-09-09T08:53:48;17.70;99.90
20459;DHT22;10388;52.314;7.938;2022-09-09T08:56:23;17.90;99.90
20459;DHT22;10388;52.314;7.938;2022-09-09T08:58:55;18.00;99.90
20459;DHT22;10388;52.314;7.938;2022-09-09T09:01:53;17.90;99.90
20459;DHT22;10388;52.314;7.938;2022-09-09T09:07:04;18.00;99.90
20459;DHT22;10388;52.314;7.938;2022-09-09T09:12:41;18.30;99.90
20459;DHT22;10388;52.314;7.938;2022-09-09T09:15:27;18.30;99.90
20459;DHT22;10388;52.314;7.938;2022-09-09T09:17:58;18.20;99.90
20459;DHT22;10388;52.314;7.938;2022-09-09T09:20:44;18.10;99.90
20459;DHT22;10388;52.314;7.938;2022-09-09T09:23:26;18.10;99.90
20459;DHT22;10388;52.314;7.938;2022-09-09T09:26:00;18.00;99.90
20459;DHT22;10388;52.314;7.938;2022-09-09T09:28:32;18.00;99.90
20459;DHT22;10388;52.314;7.938;2022-09-09T09:31:11;18.00;99.90
20459;DHT22;10388;52.314;7.938;2022-09-09T09:33:48;18.10;99.90
20459;DHT22;10388;52.314;7.938;2022-09-09T09:36:24;18.20;99.90
20459;DHT22;10388;52.314;7.938;2022-09-09T09:39:03;18.30;99.90
20459;DHT22;10388;52.314;7.938;2022-09-09T09:44:54;18.40;99.90
20459;DHT22;10388;52.314;7.938;2022-09-09T09:47:20;18.50;99.90
20459;DHT22;10388;52.314;7.938;2022-09-09T09:49:55;18.70;99.90
20459;DHT22;10388;52.314;7.938;2022-09-09T09:52:28;18.60;99.90
20459;DHT22;10388;52.314;7.938;2022-09-09T09:55:02;18.40;99.90
20459;DHT22;10388;52.314;7.938;2022-09-09T09:57:34;18.60;99.90
20459;DHT22;10388;52.314;7.938;2022-09-09T10:00:17;18.80;99.90
20459;DHT22;10388;52.314;7.938;2022-09-09T10:02:49;18.80;99.90
20459;DHT22;10388;52.314;7.938;2022-09-09T10:05:27;18.80;99.90
20459;DHT22;10388;52.314;7.938;2022-09-09T10:08:03;18.80;99.90
20459;DHT22;10388;52.314;7.938;2022-09-09T10:11:30;19.00;99.90
20459;DHT22;10388;52.314;7.938;2022-09-09T10:14:20;19.00;99.90
20459;DHT22;10388;52.314;7.938;2022-09-09T10:17:20;18.90;99.90
20459;DHT22;10388;52.314;7.938;2022-09-09T10:22:44;18.70;99.90
20459;DHT22;10388;52.314;7.938;2022-09-09T10:25:30;18.80;99.90
20459;DHT22;10388;52.314;7.938;2022-09-09T10:28:25;19.00;99.90
20459;DHT22;10388;52.314;7.938;2022-09-09T10:31:19;18.80;99.90
20459;DHT22;10388;52.314;7.938;2022-09-09T10:34:01;18.60;99.90
20459;DHT22;10388;52.314;7.938;2022-09-09T10:36:42;18.50;99.90
20459;DHT22;10388;52.314;7.938;2022-09-09T10:39:36;18.50;99.90
20459;DHT22;10388;52.314;7.938;2022-09-09T10:42:19;18.50;99.90
20459;DHT22;10388;52.314;7.938;2022-09-09T10:50:28;18.50;99.90
20459;DHT22;10388;52.314;7.938;2022-09-09T10:53:34;18.60;99.90
20459;DHT22;10388;52.314;7.938;2022-09-09T10:56:12;19.10;99.90
20459;DHT22;10388;52.314;7.938;2022-09-09T10:59:00;19.60;99.90
20459;DHT22;10388;52.314;7.938;2022-09-09T11:02:00;19.60;99.90
20459;DHT22;10388;52.314;7.938;2022-09-09T11:04:42;19.70;99.90
20459;DHT22;10388;52.314;7.938;2022-09-09T11:07:24;19.90;99.90
20459;DHT22;10388;52.314;7.938;2022-09-09T11:10:01;20.10;99.90
20459;DHT22;10388;52.314;7.938;2022-09-09T11:12:34;19.70;99.90
20459;DHT22;10388;52.314;7.938;2022-09-09T11:15:20;19.60;99.90
20459;DHT22;10388;52.314;7.938;2022-09-09T11:17:56;19.50;99.90
20459;DHT22;10388;52.314;7.938;2022-09-09T11:20:28;19.80;99.90
20459;DHT22;10388;52.314;7.938;2022-09-09T11:23:11;19.90;99.90
20459;DHT22;10388;52.314;7.938;2022-09-09T11:25:48;19.90;99.90
20459;DHT22;10388;52.314;7.938;2022-09-09T11:37:29;20.30;99.90
20459;DHT22;10388;52.314;7.938;2022-09-09T11:40:25;20.20;99.90
20459;DHT22;10388;52.314;7.938;2022-09-09T11:43:31;20.00;99.90
20459;DHT22;10388;52.314;7.938;2022-09-09T11:46:03;19.90;99.90
20459;DHT22;10388;52.314;7.938;2022-09-09T11:51:09;20.00;99.90
20459;DHT22;10388;52.314;7.938;2022-09-09T11:56:56;19.70;99.90
20459;DHT22;10388;52.314;7.938;2022-09-09T11:59:29;19.60;99.90
20459;DHT22;10388;52.314;7.938;2022-09-09T12:02:25;19.50;99.90
20459;DHT22;10388;52.314;7.938;2022-09-09T12:05:08;19.40;99.90
20459;DHT22;10388;52.314;7.938;2022-09-09T12:07:57;19.30;99.90
20459;DHT22;10388;52.314;7.938;2022-09-09T12:10:33;19.20;99.90
20459;DHT22;10388;52.314;7.938;2022-09-09T12:13:21;19.00;99.90
20459;DHT22;10388;52.314;7.938;2022-09-09T12:15:54;18.70;99.90
20459;DHT22;10388;52.314;7.938;2022-09-09T12:23:55;18.40;99.90
20459;DHT22;10388;52.314;7.938;2022-09-09T12:27:08;18.40;99.90
20459;DHT22;10388;52.314;7.938;2022-09-09T12:32:28;18.80;99.90
20459;DHT22;10388;52.314;7.938;2022-09-09T12:35:09;19.10;99.90
20459;DHT22;10388;52.314;7.938;2022-09-09T12:37:52;19.30;99.90
20459;DHT22;10388;52.314;7.938;2022-09-09T12:40:29;19.60;99.90
20459;DHT22;10388;52.314;7.938;2022-09-09T12:43:00;19.80;99.90
20459;DHT22;10388;52.314;7.938;2022-09-09T12:45:32;20.00;99.90
20459;DHT22;10388;52.314;7.938;2022-09-09T12:50:38;20.20;99.90
20459;DHT22;10388;52.314;7.938;2022-09-09T12:53:29;20.30;99.90
20459;DHT22;10388;52.314;7.938;2022-09-09T12:56:08;20.30;99.90
20459;DHT22;10388;52.314;7.938;2022-09-09T12:58:49;20.30;99.90
20459;DHT22;10388;52.314;7.938;2022-09-09T13:01:30;20.30;99.90
20459;DHT22;10388;52.314;7.938;2022-09-09T13:04:01;20.20;99.90
20459;DHT22;10388;52.314;7.938;2022-09-09T13:06:33;20.40;99.90
20459;DHT22;10388;52.314;7.938;2022-09-09T13:09:04;20.40;99.90
20459;DHT22;10388;52.314;7.938;2022-09-09T13:11:42;20.40;99.90
20459;DHT22;10388;52.314;7.938;2022-09-09T13:14:28;20.40;99.90
20459;DHT22;10388;52.314;7.938;2022-09-09T13:17:01;20.40;99.90
20459;DHT22;10388;52.314;7.938;2022-09-09T13:19:37;20.40;99.90
20459;DHT22;10388;52.314;7.938;2022-09-09T13:22:31;20.30;99.90
20459;DHT22;10388;52.314;7.938;2022-09-09T13:25:17;20.20;99.90
20459;DHT22;10388;52.314;7.938;2022-09-09T13:28:00;20.20;99.90
20459;DHT22;10388;52.314;7.938;2022-09-09T13:30:34;20.20;99.90
20459;DHT22;10388;52.314;7.938;2022-09-09T13:38:52;20.50;99.90
20459;DHT22;10388;52.314;7.938;2022-09-09T13:41:34;20.70;99.90
20459;DHT22;10388;52.314;7.938;2022-09-09T13:44:05;20.70;99.90
20459;DHT22;10388;52.314;7.938;2022-09-09T13:46:40;20.70;99.90
20459;DHT22;10388;52.314;7.938;2022-09-09T13:51:47;20.30;99.90
20459;DHT22;10388;52.314;7.938;2022-09-09T13:54:20;20.30;99.90
20459;DHT22;10388;52.314;7.938;2022-09-09T13:56:51;20.30;99.90
20459;DHT22;10388;52.314;7.938;2022-09-09T13:59:21;20.40;99.90
20459;DHT22;10388;52.314;7.938;2022-09-09T14:01:52;20.70;99.90
20459;DHT22;10388;52.314;7.938;2022-09-09T14:04:23;21.00;99.90
20459;DHT22;10388;52.314;7.938;2022-09-09T14:06:54;21.00;99.90
20459;DHT22;10388;52.314;7.938;2022-09-09T14:09:25;20.80;99.90
20459;DHT22;10388;52.314;7.938;2022-09-09T14:11:56;20.80;99.90
20459;DHT22;10388;52.314;7.938;2022-09-09T14:14:27;20.60;99.90
20459;DHT22;10388;52.314;7.938;2022-09-09T14:16:57;20.50;99.90
20459;DHT22;10388;52.314;7.938;2022-09-09T14:22:01;20.20;99.90
20459;DHT22;10388;52.314;7.938;2022-09-09T14:24:31;20.20;99.90
20459;DHT22;10388;52.314;7.938;2022-09-09T14:27:03;20.10;99.90
20459;DHT22;10388;52.314;7.938;2022-09-09T14:29:33;20.10;99.90
20459;DHT22;10388;52.314;7.938;2022-09-09T14:32:04;20.00;99.90
20459;DHT22;10388;52.314;7.938;2022-09-09T14:34:35;19.90;99.90
20459;DHT22;10388;52.314;7.938;2022-09-09T14:37:05;19.70;99.90
20459;DHT22;10388;52.314;7.938;2022-09-09T14:39:36;19.40;99.90
20459;DHT22;10388;52.314;7.938;2022-09-09T14:42:07;19.10;99.90
20459;DHT22;10388;52.314;7.938;2022-09-09T14:44:38;18.90;99.90
20459;DHT22;10388;52.314;7.938;2022-09-09T14:47:11;18.80;99.90
20459;DHT22;10388;52.314;7.938;2022-09-09T14:49:42;18.70;99.90
20459;DHT22;10388;52.314;7.938;2022-09-09T14:52:13;18.60;99.90
20459;DHT22;10388;52.314;7.938;2022-09-09T14:54:44;18.60;99.90
20459;DHT22;10388;52.314;7.938;2022-09-09T14:57:14;18.60;99.90
20459;DHT22;10388;52.314;7.938;2022-09-09T14:59:45;18.70;99.90
20459;DHT22;10388;52.314;7.938;2022-09-09T15:02:15;18.70;99.90
20459;DHT22;10388;52.314;7.938;2022-09-09T15:04:46;18.80;99.90
20459;DHT22;10388;52.314;7.938;2022-09-09T15:07:17;18.70;99.90
20459;DHT22;10388;52.314;7.938;2022-09-09T15:09:49;18.70;99.90
20459;DHT22;10388;52.314;7.938;2022-09-09T15:12:20;18.70;99.90
20459;DHT22;10388;52.314;7.938;2022-09-09T15:14:51;18.70;99.90
20459;DHT22;10388;52.314;7.938;2022-09-09T15:17:22;18.70;99.90
20459;DHT22;10388;52.314;7.938;2022-09-09T15:19:54;18.60;99.90
20459;DHT22;10388;52.314;7.938;2022-09-09T15:22:25;18.40;99.90
20459;DHT22;10388;52.314;7.938;2022-09-09T15:24:55;18.30;99.90
20459;DHT22;10388;52.314;7.938;2022-09-09T15:27:26;18.20;99.90
20459;DHT22;10388;52.314;7.938;2022-09-09T15:29:56;18.20;99.90
20459;DHT22;10388;52.314;7.938;2022-09-09T15:32:28;18.20;99.90
20459;DHT22;10388;52.314;7.938;2022-09-09T15:34:59;18.20;99.90
20459;DHT22;10388;52.314;7.938;2022-09-09T15:37:29;18.10;99.90
20459;DHT22;10388;52.314;7.938;2022-09-09T15:40:00;18.00;99.90
20459;DHT22;10388;52.314;7.938;2022-09-09T15:42:31;18.00;99.90
20459;DHT22;10388;52.314;7.938;2022-09-09T15:45:01;18.00;99.90
20459;DHT22;10388;52.314;7.938;2022-09-09T15:47:33;17.90;99.90
20459;DHT22;10388;52.314;7.938;2022-09-09T15:50:04;17.90;99.90
20459;DHT22;10388;52.314;7.938;2022-09-09T15:52:34;17.80;99.90
20459;DHT22;10388;52.314;7.938;2022-09-09T15:55:05;17.80;99.90
20459;DHT22;10388;52.314;7.938;2022-09-09T15:57:36;17.80;99.90
20459;DHT22;10388;52.314;7.938;2022-09-09T16:00:07;17.80;99.90
20459;DHT22;10388;52.314;7.938;2022-09-09T16:02:38;17.80;99.90
20459;DHT22;10388;52.314;7.938;2022-09-09T16:05:09;17.90;99.90
20459;DHT22;10388;52.314;7.938;2022-09-09T16:07:39;17.90;99.90
20459;DHT22;10388;52.314;7.938;2022-09-09T16:10:10;17.80;99.90
20459;DHT22;10388;52.314;7.938;2022-09-09T16:12:41;17.90;99.90
20459;DHT22;10388;52.314;7.938;2022-09-09T16:15:12;17.80;99.90
20459;DHT22;10388;52.314;7.938;2022-09-09T16:17:42;17.80;99.90
20459;DHT22;10388;52.314;7.938;2022-09-09T16:20:14;17.80;99.90
20459;DHT22;10388;52.314;7.938;2022-09-09T16:22:45;17.80;99.90
20459;DHT22;10388;52.314;7.938;2022-09-09T16:25:16;17.70;99.90
20459;DHT22;10388;52.314;7.938;2022-09-09T16:27:46;17.60;99.90
20459;DHT22;10388;52.314;7.938;2022-09-09T16:30:17;17.60;99.90
20459;DHT22;10388;52.314;7.938;2022-09-09T16:32:47;17.50;99.90
20459;DHT22;10388;52.314;7.938;2022-09-09T16:35:18;17.40;99.90
20459;DHT22;10388;52.314;7.938;2022-09-09T16:37:49;17.40;99.90
20459;DHT22;10388;52.314;7.938;2022-09-09T16:40:20;17.40;99.90
20459;DHT22;10388;52.314;7.938;2022-09-09T16:42:50;17.40;99.90
20459;DHT22;10388;52.314;7.938;2022-09-09T16:45:22;17.30;99.90
20459;DHT22;10388;52.314;7.938;2022-09-09T16:47:52;17.30;99.90
20459;DHT22;10388;52.314;7.938;2022-09-09T16:50:23;17.30;99.90
20459;DHT22;10388;52.314;7.938;2022-09-09T16:52:53;17.30;99.90
20459;DHT22;10388;52.314;7.938;2022-09-09T16:55:24;17.20;99.90
20459;DHT22;10388;52.314;7.938;2022-09-09T16:57:56;17.20;99.90
20459;DHT22;10388;52.314;7.938;2022-09-09T17:00:26;17.20;99.90
20459;DHT22;10388;52.314;7.938;2022-09-09T17:02:57;17.10;99.90
20459;DHT22;10388;52.314;7.938;2022-09-09T17:05:29;17.10;99.90
20459;DHT22;10388;52.314;7.938;2022-09-09T17:07:59;17.00;99.90
20459;DHT22;10388;52.314;7.938;2022-09-09T17:10:30;17.00;99.90
20459;DHT22;10388;52.314;7.938;2022-09-09T17:13:01;17.00;99.90
20459;DHT22;10388;52.314;7.938;2022-09-09T17:15:31;17.00;99.90
20459;DHT22;10388;52.314;7.938;2022-09-09T17:18:02;17.00;99.90
20459;DHT22;10388;52.314;7.938;2022-09-09T17:20:36;17.00;99.90
20459;DHT22;10388;52.314;7.938;2022-09-09T17:23:11;16.90;99.90
20459;DHT22;10388;52.314;7.938;2022-09-09T17:25:43;16.90;99.90
20459;DHT22;10388;52.314;7.938;2022-09-09T17:28:15;17.00;99.90
20459;DHT22;10388;52.314;7.938;2022-09-09T17:30:45;16.90;99.90
20459;DHT22;10388;52.314;7.938;2022-09-09T17:33:17;16.80;99.90
20459;DHT22;10388;52.314;7.938;2022-09-09T17:35:48;16.80;99.90
20459;DHT22;10388;52.314;7.938;2022-09-09T17:38:19;16.80;99.90
20459;DHT22;10388;52.314;7.938;2022-09-09T17:40:49;16.80;99.90
20459;DHT22;10388;52.314;7.938;2022-09-09T17:43:21;16.80;99.90
20459;DHT22;10388;52.314;7.938;2022-09-09T17:45:52;16.80;99.90
20459;DHT22;10388;52.314;7.938;2022-09-09T17:48:22;16.70;99.90
20459;DHT22;10388;52.314;7.938;2022-09-09T17:50:59;16.70;99.90
20459;DHT22;10388;52.314;7.938;2022-09-09T17:53:30;16.70;99.90
20459;DHT22;10388;52.314;7.938;2022-09-09T17:56:06;16.70;99.90
20459;DHT22;10388;52.314;7.938;2022-09-09T17:58:38;16.60;99.90
20459;DHT22;10388;52.314;7.938;2022-09-09T18:01:11;16.50;99.90
20459;DHT22;10388;52.314;7.938;2022-09-09T18:03:43;16.50;99.90
20459;DHT22;10388;52.314;7.938;2022-09-09T18:06:17;16.50;99.90
20459;DHT22;10388;52.314;7.938;2022-09-09T18:08:50;16.50;99.90
20459;DHT22;10388;52.314;7.938;2022-09-09T18:11:24;16.50;99.90
20459;DHT22;10388;52.314;7.938;2022-09-09T18:13:57;16.50;99.90
20459;DHT22;10388;52.314;7.938;2022-09-09T18:16:31;16.40;99.90
20459;DHT22;10388;52.314;7.938;2022-09-09T18:19:07;16.40;99.90
20459;DHT22;10388;52.314;7.938;2022-09-09T18:21:39;16.40;99.90
20459;DHT22;10388;52.314;7.938;2022-09-09T18:24:11;16.40;99.90
20459;DHT22;10388;52.314;7.938;2022-09-09T18:26:44;16.40;99.90
20459;DHT22;10388;52.314;7.938;2022-09-09T18:29:17;16.30;99.90
20459;DHT22;10388;52.314;7.938;2022-09-09T18:31:49;16.30;99.90
20459;DHT22;10388;52.314;7.938;2022-09-09T18:34:21;16.30;99.90
20459;DHT22;10388;52.314;7.938;2022-09-09T18:36:53;16.30;99.90
20459;DHT22;10388;52.314;7.938;2022-09-09T18:39:28;16.30;99.90
20459;DHT22;10388;52.314;7.938;2022-09-09T18:42:00;16.30;99.90
20459;DHT22;10388;52.314;7.938;2022-09-09T18:44:33;16.20;99.90
20459;DHT22;10388;52.314;7.938;2022-09-09T18:47:05;16.20;99.90
20459;DHT22;10388;52.314;7.938;2022-09-09T18:49:37;16.20;99.90
20459;DHT22;10388;52.314;7.938;2022-09-09T18:52:07;16.20;99.90
20459;DHT22;10388;52.314;7.938;2022-09-09T18:54:38;16.20;99.90
20459;DHT22;10388;52.314;7.938;2022-09-09T18:57:11;16.10;99.90
20459;DHT22;10388;52.314;7.938;2022-09-09T18:59:41;16.10;99.90
20459;DHT22;10388;52.314;7.938;2022-09-09T19:02:12;16.10;99.90
20459;DHT22;10388;52.314;7.938;2022-09-09T19:04:42;16.10;99.90
20459;DHT22;10388;52.314;7.938;2022-09-09T19:07:13;16.10;99.90
20459;DHT22;10388;52.314;7.938;2022-09-09T19:09:44;16.00;99.90
20459;DHT22;10388;52.314;7.938;2022-09-09T19:12:15;16.00;99.90
20459;DHT22;10388;52.314;7.938;2022-09-09T19:14:45;16.00;99.90
20459;DHT22;10388;52.314;7.938;2022-09-09T19:17:16;15.90;99.90
20459;DHT22;10388;52.314;7.938;2022-09-09T19:19:48;15.90;99.90
20459;DHT22;10388;52.314;7.938;2022-09-09T19:22:20;15.90;99.90
20459;DHT22;10388;52.314;7.938;2022-09-09T19:24:52;15.90;99.90
20459;DHT22;10388;52.314;7.938;2022-09-09T19:27:22;15.90;99.90
20459;DHT22;10388;52.314;7.938;2022-09-09T19:29:53;15.80;99.90
20459;DHT22;10388;52.314;7.938;2022-09-09T19:32:23;15.80;99.90
20459;DHT22;10388;52.314;7.938;2022-09-09T19:34:54;15.80;99.90
20459;DHT22;10388;52.314;7.938;2022-09-09T19:37:25;15.70;99.90
20459;DHT22;10388;52.314;7.938;2022-09-09T19:39:55;15.70;99.90
20459;DHT22;10388;52.314;7.938;2022-09-09T19:42:26;15.60;99.90
20459;DHT22;10388;52.314;7.938;2022-09-09T19:44:56;15.50;99.90
20459;DHT22;10388;52.314;7.938;2022-09-09T19:47:27;15.50;99.90
20459;DHT22;10388;52.314;7.938;2022-09-09T19:49:57;15.50;99.90
20459;DHT22;10388;52.314;7.938;2022-09-09T19:52:28;15.50;99.90